createdAt,value
2019-04-27T00:02:22.464Z,96728.86
2019-04-27T00:05:54.190Z,96733.03
2019-04-27T00:09:00.414Z,96725.24
2019-04-27T00:12:33.073Z,96731.00
2019-04-27T00:15:49.769Z,96720.27
2019-04-27T00:19:03.759Z,96724.72
2019-04-27T00:22:17.388Z,96723.67
2019-04-27T00:25:18.244Z,96713.58
2019-04-27T00:28:15.153Z,96712.70
2019-04-27T00:31:13.313Z,96712.23
2019-04-27T00:34:13.721Z,96706.30
2019-04-27T00:37:20.678Z,96708.47
2019-04-27T00:40:31.011Z,96710.60
2019-04-27T00:43:34.632Z,96711.19
2019-04-27T00:46:27.658Z,96700.36
2019-04-27T00:49:30.495Z,96693.78
2019-04-27T00:52:34.887Z,96697.26
2019-04-27T00:55:35.155Z,96696.00
2019-04-27T00:58:34.635Z,96693.18
2019-04-27T01:01:43.497Z,96694.83
2019-04-27T01:04:48.657Z,96691.77
2019-04-27T01:07:55.639Z,96688.67
2019-04-27T01:10:56.991Z,96687.70
2019-04-27T01:13:58.601Z,96685.11
2019-04-27T01:17:09.860Z,96679.70
2019-04-27T01:20:09.657Z,96682.08
2019-04-27T01:23:10.765Z,96684.20
2019-04-27T01:26:25.291Z,96682.19
2019-04-27T01:29:36.537Z,96670.71
2019-04-27T01:32:39.238Z,96670.06
2019-04-27T01:35:39.111Z,96667.87
2019-04-27T01:38:49.685Z,96659.23
2019-04-27T01:42:08.896Z,96659.38
2019-04-27T01:45:14.148Z,96658.83
2019-04-27T01:48:23.770Z,96651.93
2019-04-27T01:51:29.474Z,96649.13
2019-04-27T01:54:04.719Z,96644.14
2019-04-27T01:57:06.767Z,96648.31
2019-04-27T02:00:06.564Z,96647.63
2019-04-27T02:03:10.523Z,96637.92
2019-04-27T02:06:26.855Z,96635.59
2019-04-27T02:09:18.784Z,96637.03
2019-04-27T02:12:29.135Z,96636.94
2019-04-27T02:15:31.397Z,96628.66
2019-04-27T02:18:37.448Z,96638.96
2019-04-27T02:21:41.359Z,96638.06
2019-04-27T02:24:46.103Z,96636.13
2019-04-27T02:27:47.075Z,96630.50
2019-04-27T02:31:04.421Z,96629.05
2019-04-27T02:34:02.532Z,96630.34
2019-04-27T02:37:11.249Z,96630.99
2019-04-27T02:40:11.883Z,96625.23
2019-04-27T02:43:21.376Z,96624.78
2019-04-27T02:46:24.897Z,96624.66
2019-04-27T02:49:23.759Z,96618.27
2019-04-27T02:52:40.451Z,96617.63
2019-04-27T02:55:30.431Z,96625.08
2019-04-27T02:58:34.592Z,96624.78
2019-04-27T03:01:43.595Z,96614.97
2019-04-27T03:04:30.540Z,96616.06
2019-04-27T03:07:42.828Z,96614.37
2019-04-27T03:10:50.338Z,96621.18
2019-04-27T03:14:34.901Z,96611.46
2019-04-27T03:17:59.694Z,96606.34
2019-04-27T03:21:13.210Z,96603.27
2019-04-27T03:24:10.860Z,96595.19
2019-04-27T03:27:27.065Z,96590.42
2019-04-27T03:30:26.655Z,96588.66
2019-04-27T03:33:36.311Z,96581.75
2019-04-27T03:36:40.119Z,96582.73
2019-04-27T03:39:45.400Z,96578.67
2019-04-27T03:42:55.685Z,96572.11
2019-04-27T03:45:39.782Z,96562.92
2019-04-27T03:48:41.560Z,96561.99
2019-04-27T03:51:32.482Z,96562.69
2019-04-27T03:54:22.755Z,96560.66
2019-04-27T03:57:33.035Z,96549.98
2019-04-27T04:00:33.394Z,96548.15
2019-04-27T04:03:50.154Z,96549.17
2019-04-27T04:06:51.763Z,96551.34
2019-04-27T04:10:00.116Z,96554.81
2019-04-27T04:13:31.783Z,96562.13
2019-04-27T04:16:39.461Z,96557.63
2019-04-27T04:19:54.005Z,96555.34
2019-04-27T04:22:44.427Z,96561.62
2019-04-27T04:25:37.241Z,96555.17
2019-04-27T04:28:41.712Z,96547.45
2019-04-27T04:31:50.010Z,96549.69
2019-04-27T04:35:10.912Z,96554.86
2019-04-27T04:38:13.172Z,96547.09
2019-04-27T04:41:15.911Z,96542.70
2019-04-27T04:44:23.982Z,96536.30
2019-04-27T04:47:45.497Z,96536.06
2019-04-27T04:50:30.563Z,96537.41
2019-04-27T04:53:36.088Z,96532.73
2019-04-27T04:56:32.298Z,96531.70
2019-04-27T04:59:36.282Z,96527.20
2019-04-27T05:02:39.973Z,96530.63
2019-04-27T05:05:33.397Z,96528.08
2019-04-27T05:08:36.253Z,96522.66
2019-04-27T05:11:51.618Z,96520.09
2019-04-27T05:14:53.206Z,96525.72
2019-04-27T05:17:59.662Z,96520.67
2019-04-27T05:21:20.142Z,96517.42
2019-04-27T05:24:29.291Z,96521.68
2019-04-27T05:27:29.311Z,96525.49
2019-04-27T05:30:21.570Z,96527.36
2019-04-27T05:33:28.561Z,96524.77
2019-04-27T05:37:01.114Z,96521.88
2019-04-27T05:39:51.051Z,96531.28
2019-04-27T05:43:01.286Z,96536.88
2019-04-27T05:46:39.840Z,96536.31
2019-04-27T05:49:48.523Z,96542.20
2019-04-27T05:52:54.159Z,96537.25
2019-04-27T05:55:49.436Z,96547.02
2019-04-27T05:58:57.326Z,96542.16
2019-04-27T06:02:02.101Z,96541.98
2019-04-27T06:05:02.118Z,96537.97
2019-04-27T06:08:02.101Z,96538.58
2019-04-27T06:10:59.145Z,96538.98
2019-04-27T06:14:12.951Z,96542.55
2019-04-27T06:17:17.281Z,96540.37
2019-04-27T06:20:11.731Z,96534.89
2019-04-27T06:23:12.582Z,96542.12
2019-04-27T06:26:25.599Z,96527.64
2019-04-27T06:29:32.101Z,96525.94
2019-04-27T06:32:32.116Z,96526.78
2019-04-27T06:35:32.101Z,96530.28
2019-04-27T06:38:32.583Z,96531.89
2019-04-27T06:41:29.445Z,96529.06
2019-04-27T06:44:41.438Z,96525.05
2019-04-27T06:47:31.366Z,96515.23
2019-04-27T06:50:23.903Z,96519.73
2019-04-27T06:53:35.179Z,96522.44
2019-04-27T06:56:34.473Z,96525.33
2019-04-27T06:59:40.075Z,96520.66
2019-04-27T07:02:45.375Z,96524.83
2019-04-27T07:05:43.460Z,96516.68
2019-04-27T07:08:49.944Z,96515.88
2019-04-27T07:11:51.790Z,96522.71
2019-04-27T07:14:55.249Z,96515.59
2019-04-27T07:17:56.562Z,96511.53
2019-04-27T07:20:59.225Z,96492.63
2019-04-27T07:24:12.831Z,96495.09
2019-04-27T07:27:21.213Z,96500.78
2019-04-27T07:30:16.353Z,96500.91
2019-04-27T07:33:18.576Z,96501.81
2019-04-27T07:36:30.862Z,96492.98
2019-04-27T07:39:41.801Z,96491.98
2019-04-27T07:42:47.111Z,96502.53
2019-04-27T07:45:39.686Z,96494.73
2019-04-27T07:48:50.892Z,96485.88
2019-04-27T07:51:49.860Z,96483.52
2019-04-27T07:54:31.691Z,96491.25
2019-04-27T07:57:19.857Z,96491.52
2019-04-27T08:00:21.114Z,96500.02
2019-04-27T08:03:29.433Z,96492.17
2019-04-27T08:06:29.181Z,96493.27
2019-04-27T08:12:20.791Z,96488.72
2019-04-27T08:15:24.306Z,96484.77
2019-04-27T08:18:34.471Z,96490.13
2019-04-27T08:21:47.225Z,96486.49
2019-04-27T08:24:17.456Z,96485.73
2019-04-27T08:27:32.747Z,96492.48
2019-04-27T08:30:23.192Z,96485.02
2019-04-27T08:33:21.626Z,96478.67
2019-04-27T08:39:13.907Z,96477.50
2019-04-27T08:42:25.900Z,96466.82
2019-04-27T08:45:24.992Z,96475.72
2019-04-27T08:48:15.517Z,96467.55
2019-04-27T08:50:45.932Z,96462.97
2019-04-27T08:53:37.365Z,96456.88
2019-04-27T08:56:21.332Z,96460.24
2019-04-27T08:59:01.132Z,96460.03
2019-04-27T09:01:58.661Z,96457.94
2019-04-27T09:04:49.563Z,96460.97
2019-04-27T09:07:43.383Z,96463.70
2019-04-27T09:10:50.391Z,96449.13
2019-04-27T09:13:59.949Z,96454.11
2019-04-27T09:17:09.564Z,96454.98
2019-04-27T09:20:04.670Z,96453.30
2019-04-27T09:23:18.623Z,96457.20
2019-04-27T09:26:24.459Z,96451.42
2019-04-27T09:29:22.064Z,96459.55
2019-04-27T09:31:55.278Z,96469.80
2019-04-27T09:34:28.870Z,96459.89
2019-04-27T09:37:06.214Z,96457.20
2019-04-27T09:39:46.159Z,96468.19
2019-04-27T09:42:26.720Z,96464.89
2019-04-27T09:44:59.270Z,96458.70
2019-04-27T09:47:32.366Z,96459.88
2019-04-27T09:50:12.025Z,96455.58
2019-04-27T09:52:51.035Z,96455.85
2019-04-27T09:55:23.172Z,96447.27
2019-04-27T09:58:18.387Z,96455.27
2019-04-27T10:00:48.856Z,96455.31
2019-04-27T10:03:33.680Z,96442.72
2019-04-27T10:06:11.198Z,96438.28
2019-04-27T10:08:58.626Z,96437.36
2019-04-27T10:11:39.109Z,96425.96
2019-04-27T10:14:26.422Z,96422.97
2019-04-27T10:17:03.526Z,96417.57
2019-04-27T10:20:13.356Z,96414.45
2019-04-27T10:23:01.386Z,96422.16
2019-04-27T10:25:33.477Z,96432.23
2019-04-27T10:28:16.228Z,96428.62
2019-04-27T10:31:11.965Z,96433.39
2019-04-27T10:34:17.003Z,96434.59
2019-04-27T10:37:12.513Z,96435.73
2019-04-27T10:40:18.587Z,96441.05
2019-04-27T10:43:13.042Z,96412.63
2019-04-27T10:46:00.333Z,96425.20
2019-04-27T10:48:50.104Z,96417.23
2019-04-27T10:51:23.095Z,96420.70
2019-04-27T10:54:04.645Z,96408.73
2019-04-27T10:56:55.889Z,96410.23
2019-04-27T11:00:00.311Z,96397.55
2019-04-27T11:02:58.371Z,96387.12
2019-04-27T11:06:18.311Z,96389.70
2019-04-27T11:10:20.163Z,96375.64
2019-04-27T11:13:06.355Z,96379.71
2019-04-27T11:16:07.688Z,96383.00
2019-04-27T11:19:01.511Z,96371.44
2019-04-27T11:22:10.684Z,96369.22
2019-04-27T11:25:16.445Z,96358.73
2019-04-27T11:28:12.380Z,96365.95
2019-04-27T11:31:01.457Z,96371.17
2019-04-27T11:33:57.877Z,96367.05
2019-04-27T11:37:00.125Z,96362.69
2019-04-27T11:40:08.474Z,96359.73
2019-04-27T11:43:05.765Z,96372.63
2019-04-27T11:46:06.208Z,96370.14
2019-04-27T11:48:58.166Z,96375.27
2019-04-27T11:51:46.585Z,96380.13
2019-04-27T11:54:28.575Z,96393.61
2019-04-27T11:57:23.840Z,96459.35
2019-04-27T12:00:07.462Z,96488.77
2019-04-27T12:03:08.867Z,96482.51
2019-04-27T12:06:08.196Z,96484.11
2019-04-27T12:09:11.915Z,96483.42
2019-04-27T12:12:18.157Z,96469.66
2019-04-27T12:18:02.748Z,96457.73
2019-04-27T12:20:55.749Z,96457.95
2019-04-27T12:23:48.397Z,96446.91
2019-04-27T12:27:02.919Z,96415.48
2019-04-27T12:30:07.640Z,96414.81
2019-04-27T12:32:55.711Z,96417.13
2019-04-27T12:35:49.687Z,96425.84
2019-04-27T12:38:47.478Z,96432.15
2019-04-27T12:41:56.045Z,96446.73
2019-04-27T12:44:42.184Z,96436.99
2019-04-27T12:47:12.646Z,96469.77
2019-04-27T12:49:57.481Z,96469.27
2019-04-27T12:52:38.427Z,96480.94
2019-04-27T12:55:38.689Z,96474.09
2019-04-27T12:58:40.066Z,96483.26
2019-04-27T13:01:18.051Z,96476.39
2019-04-27T13:03:48.306Z,96477.06
2019-04-27T13:06:25.606Z,96475.71
2019-04-27T13:09:09.044Z,96456.52
2019-04-27T13:11:41.310Z,96455.47
2019-04-27T13:14:18.135Z,96444.20
2019-04-27T13:16:50.640Z,96436.01
2019-04-27T13:19:28.732Z,96435.86
2019-04-27T13:22:09.060Z,96420.61
2019-04-27T13:24:57.907Z,96436.58
2019-04-27T13:27:33.823Z,96446.69
2019-04-27T13:30:20.792Z,96436.23
2019-04-27T13:32:56.714Z,96424.03
2019-04-27T13:35:28.526Z,96400.83
2019-04-27T13:38:01.686Z,96398.88
2019-04-27T13:40:42.497Z,96424.16
2019-04-27T13:43:57.393Z,96418.78
2019-04-27T13:46:38.758Z,96410.77
2019-04-27T13:50:06.484Z,96407.25
2019-04-27T13:53:00.619Z,96406.45
2019-04-27T13:56:06.444Z,96393.55
2019-04-27T13:59:01.178Z,96403.20
2019-04-27T14:02:01.692Z,96410.36
2019-04-27T14:04:54.149Z,96414.20
2019-04-27T14:07:53.347Z,96438.50
2019-04-27T14:11:02.482Z,96441.98
2019-04-27T14:14:07.794Z,96436.80
2019-04-27T14:17:19.265Z,96432.11
2019-04-27T14:20:21.755Z,96438.13
2019-04-27T14:23:34.885Z,96428.75
2019-04-27T14:26:43.003Z,96424.20
2019-04-27T14:29:46.794Z,96435.75
2019-04-27T14:32:52.860Z,96434.13
2019-04-27T14:35:56.619Z,96425.48
2019-04-27T14:39:01.232Z,96422.25
2019-04-27T14:42:05.501Z,96424.05
2019-04-27T14:45:15.835Z,96411.15
2019-04-27T14:48:08.196Z,96419.36
2019-04-27T14:51:08.722Z,96419.09
2019-04-27T14:54:22.589Z,96432.24
2019-04-27T14:57:27.120Z,96438.02
2019-04-27T15:00:34.883Z,96449.05
2019-04-27T15:03:32.831Z,96458.78
2019-04-27T15:06:32.607Z,96450.66
2019-04-27T15:09:37.504Z,96449.38
2019-04-27T15:12:42.561Z,96454.23
2019-04-27T15:15:43.472Z,96455.02
2019-04-27T15:18:47.654Z,96461.12
2019-04-27T15:21:58.594Z,96471.33
2019-04-27T15:25:09.319Z,96462.41
2019-04-27T15:28:07.360Z,96460.64
2019-04-27T15:31:09.787Z,96464.31
2019-04-27T15:34:10.936Z,96459.53
2019-04-27T15:37:28.234Z,96464.41
2019-04-27T15:40:29.880Z,96464.50
2019-04-27T15:43:27.262Z,96462.48
2019-04-27T15:45:59.515Z,96474.73
2019-04-27T15:48:34.016Z,96473.01
2019-04-27T15:51:25.052Z,96472.80
2019-04-27T15:54:03.139Z,96475.49
2019-04-27T15:56:49.094Z,96468.32
2019-04-27T15:59:37.844Z,96471.81
2019-04-27T16:02:22.436Z,96474.81
2019-04-27T16:05:11.648Z,96462.83
2019-04-27T16:08:15.816Z,96472.13
2019-04-27T16:11:16.560Z,96475.28
2019-04-27T16:14:13.123Z,96459.98
2019-04-27T16:17:11.426Z,96464.92
2019-04-27T16:20:08.547Z,96470.20
2019-04-27T16:23:18.181Z,96471.14
2019-04-27T16:25:54.168Z,96485.33
2019-04-27T16:28:53.324Z,96505.50
2019-04-27T16:32:02.616Z,96519.03
2019-04-27T16:34:56.423Z,96519.31
2019-04-27T16:38:07.784Z,96528.56
2019-04-27T16:41:03.860Z,96525.84
2019-04-27T16:44:06.892Z,96527.08
2019-04-27T16:47:00.877Z,96535.75
2019-04-27T16:49:48.274Z,96540.94
2019-04-27T16:52:42.832Z,96542.48
2019-04-27T16:55:35.353Z,96551.42
2019-04-27T16:58:36.497Z,96551.92
2019-04-27T17:01:46.316Z,96547.05
2019-04-27T17:04:38.783Z,96542.63
2019-04-27T17:07:37.426Z,96542.84
2019-04-27T17:10:25.474Z,96538.74
2019-04-27T17:13:00.548Z,96535.98
2019-04-27T17:15:58.893Z,96533.16
2019-04-27T17:19:06.521Z,96542.23
2019-04-27T17:22:01.249Z,96547.63
2019-04-27T17:24:58.838Z,96559.46
2019-04-27T17:28:03.866Z,96553.67
2019-04-27T17:30:50.742Z,96557.84
2019-04-27T17:33:53.915Z,96561.56
2019-04-27T17:36:54.791Z,96566.60
2019-04-27T17:39:57.595Z,96565.78
2019-04-27T17:42:48.231Z,96573.47
2019-04-27T17:45:36.257Z,96579.63
2019-04-27T17:48:20.808Z,96589.13
2019-04-27T17:51:18.069Z,96597.63
2019-04-27T17:54:11.388Z,96602.61
2019-04-27T17:57:10.406Z,96611.02
2019-04-27T18:00:13.774Z,96620.44
2019-04-27T18:03:05.400Z,96618.88
2019-04-27T18:05:49.320Z,96623.77
2019-04-27T18:08:49.515Z,96625.23
2019-04-27T18:11:44.272Z,96628.26
2019-04-27T18:14:44.166Z,96626.48
2019-04-27T18:17:48.360Z,96620.91
2019-04-27T18:20:38.578Z,96625.15
2019-04-27T18:23:38.592Z,96620.75
2019-04-27T18:26:29.589Z,96631.30
2019-04-27T18:29:03.991Z,96626.67
2019-04-27T18:32:14.053Z,96628.67
2019-04-27T18:35:09.010Z,96623.86
2019-04-27T18:38:01.995Z,96633.19
2019-04-27T18:40:53.539Z,96638.52
2019-04-27T18:43:51.106Z,96640.30
2019-04-27T18:46:38.458Z,96642.83
2019-04-27T18:49:36.454Z,96645.31
2019-04-27T18:52:52.760Z,96655.78
2019-04-27T18:55:32.507Z,96655.39
2019-04-27T18:58:25.995Z,96671.38
2019-04-27T19:01:08.611Z,96669.76
2019-04-27T19:03:58.714Z,96673.33
2019-04-27T19:07:00.970Z,96674.14
2019-04-27T19:10:03.546Z,96678.89
2019-04-27T19:13:00.208Z,96674.70
2019-04-27T19:16:00.396Z,96684.34
2019-04-27T19:18:43.722Z,96687.81
2019-04-27T19:21:36.028Z,96691.63
2019-04-27T19:24:35.746Z,96694.58
2019-04-27T19:28:04.065Z,96696.91
2019-04-27T19:30:45.039Z,96702.34
2019-04-27T19:33:30.861Z,96708.92
2019-04-27T19:36:27.953Z,96711.26
2019-04-27T19:38:59.808Z,96709.67
2019-04-27T19:41:39.663Z,96716.41
2019-04-27T19:44:40.920Z,96719.79
2019-04-27T19:47:26.540Z,96731.03
2019-04-27T19:50:13.401Z,96732.89
2019-04-27T19:53:16.349Z,96736.66
2019-04-27T19:56:16.149Z,96735.55
2019-04-27T19:59:08.938Z,96746.39
2019-04-27T20:02:04.365Z,96748.40
2019-04-27T20:05:16.418Z,96744.25
2019-04-27T20:08:04.725Z,96747.95
2019-04-27T20:11:05.611Z,96754.42
2019-04-27T20:13:52.510Z,96758.23
2019-04-27T20:16:51.944Z,96759.41
2019-04-27T20:20:02.874Z,96756.80
2019-04-27T20:23:02.867Z,96760.56
2019-04-27T20:25:54.766Z,96765.67
2019-04-27T20:28:34.406Z,96768.89
2019-04-27T20:31:36.335Z,96764.38
2019-04-27T20:34:16.570Z,96768.05
2019-04-27T20:37:12.128Z,96773.08
2019-04-27T20:40:07.043Z,96769.15
2019-04-27T20:43:02.231Z,96766.59
2019-04-27T20:45:56.004Z,96772.73
2019-04-27T20:48:46.089Z,96772.15
2019-04-27T20:51:50.949Z,96773.48
2019-04-27T20:54:41.458Z,96771.85
2019-04-27T20:57:23.731Z,96775.04
2019-04-27T21:00:19.452Z,96774.07
2019-04-27T21:03:51.128Z,96788.88
2019-04-27T21:06:48.541Z,96785.77
2019-04-27T21:09:46.015Z,96790.84
2019-04-27T21:12:43.511Z,96793.36
2019-04-27T21:15:43.818Z,96802.86
2019-04-27T21:18:43.006Z,96801.68
2019-04-27T21:21:51.086Z,96804.34
2019-04-27T21:24:44.046Z,96816.52
2019-04-27T21:27:51.356Z,96814.33
2019-04-27T21:30:38.628Z,96819.17
2019-04-27T21:33:38.627Z,96816.39
2019-04-27T21:36:37.178Z,96812.47
2019-04-27T21:39:27.952Z,96815.58
2019-04-27T21:42:14.399Z,96814.65
2019-04-27T21:45:04.535Z,96816.28
2019-04-27T21:48:06.094Z,96819.06
2019-04-27T21:51:03.125Z,96817.81
2019-04-27T21:54:10.237Z,96817.04
2019-04-27T21:57:11.022Z,96817.52
2019-04-27T22:00:13.243Z,96821.91
2019-04-27T22:03:17.991Z,96824.91
2019-04-27T22:06:26.123Z,96827.69
2019-04-27T22:09:10.780Z,96828.48
2019-04-27T22:12:11.192Z,96833.91
2019-04-27T22:15:08.641Z,96836.45
2019-04-27T22:18:15.897Z,96836.89
2019-04-27T22:21:16.327Z,96834.23
2019-04-27T22:24:30.075Z,96834.23
2019-04-27T22:27:20.413Z,96840.88
2019-04-27T22:30:18.143Z,96833.71
2019-04-27T22:33:30.199Z,96843.28
2019-04-27T22:36:29.199Z,96838.47
2019-04-27T22:39:04.606Z,96842.05
2019-04-27T22:42:14.809Z,96842.00
2019-04-27T22:45:18.491Z,96843.25
2019-04-27T22:48:31.426Z,96845.36
2019-04-27T22:51:36.341Z,96843.77
2019-04-27T22:54:32.862Z,96846.05
2019-04-27T22:57:38.194Z,96844.98
2019-04-27T23:01:07.618Z,96848.33
2019-04-27T23:04:11.493Z,96848.41
2019-04-27T23:07:15.092Z,96850.44
2019-04-27T23:10:14.503Z,96853.52
2019-04-27T23:13:11.899Z,96852.45
2019-04-27T23:16:30.767Z,96852.97
2019-04-27T23:19:30.896Z,96858.16
2019-04-27T23:22:31.622Z,96857.30
2019-04-27T23:25:35.129Z,96861.28
2019-04-27T23:28:51.430Z,96856.31
2019-04-27T23:32:08.303Z,96858.92
2019-04-27T23:35:22.349Z,96858.41
2019-04-27T23:38:21.672Z,96862.19
2019-04-27T23:41:38.791Z,96855.70
2019-04-27T23:44:47.605Z,96859.61
2019-04-27T23:47:55.665Z,96858.68
2019-04-27T23:50:49.595Z,96859.71
2019-04-27T23:53:57.255Z,96858.10
2019-04-27T23:57:05.793Z,96860.48
